Time;durP1;ratioP1;P1;durP2;ratioP2;P2;SDS_P1;SDS_P2;PMS_P1;PMS_P2;Temp;Humidity;BMP_temperature;BMP_pressure;BME280_temperature;BME280_humidity;BME280_pressure;Samples;Min_cycle;Max_cycle;Signal;HPM_P1;HPM_P2
2021/04/21 00:00:10;;;;;;;14.43;11.50;;;12.70;95.70;;;;;;2095518;28;20074;-69
2021/04/21 00:01:11;;;;;;;14.45;12.90;;;12.60;95.90;;;;;;2095848;28;20025;-69
2021/04/21 00:02:22;;;;;;;13.07;11.82;;;12.60;96.20;;;;;;2095592;28;20044;-69
2021/04/21 00:03:23;;;;;;;14.23;11.68;;;12.60;96.60;;;;;;2095683;28;20021;-70
2021/04/21 00:04:26;;;;;;;13.38;11.98;;;12.50;96.20;;;;;;2095992;28;20475;-69
2021/04/21 00:05:28;;;;;;;12.27;11.18;;;12.50;96.80;;;;;;2095935;28;20561;-70
2021/04/21 00:06:30;;;;;;;14.20;11.45;;;12.50;96.30;;;;;;2105197;28;20032;-69
2021/04/21 00:07:31;;;;;;;14.80;11.52;;;12.40;96.20;;;;;;2105648;28;20459;-70
2021/04/21 00:08:32;;;;;;;16.98;13.02;;;12.40;96.30;;;;;;2105106;28;20020;-70
2021/04/21 00:09:33;;;;;;;15.70;13.35;;;12.40;96.60;;;;;;2104734;28;20028;-70
2021/04/21 00:10:35;;;;;;;15.25;12.13;;;12.40;96.70;;;;;;2105866;28;20124;-69
2021/04/21 00:11:36;;;;;;;14.80;13.20;;;12.40;96.70;;;;;;2105563;28;20048;-70
2021/04/21 00:12:37;;;;;;;14.40;12.85;;;12.30;96.80;;;;;;2105022;28;20066;-69
2021/04/21 00:13:38;;;;;;;13.30;11.90;;;12.30;96.90;;;;;;2105530;28;20063;-69
2021/04/21 00:14:39;;;;;;;14.88;12.05;;;12.20;96.60;;;;;;2105872;28;20409;-69
2021/04/21 00:15:40;;;;;;;15.23;13.52;;;12.20;96.50;;;;;;2105491;28;20111;-70
2021/04/21 00:16:40;;;;;;;13.82;12.45;;;12.20;96.60;;;;;;2105922;28;20031;-70
2021/04/21 00:17:47;;;;;;;16.67;14.98;;;12.20;96.50;;;;;;2105733;28;20372;-69
2021/04/21 00:18:48;;;;;;;16.00;13.65;;;12.20;97.30;;;;;;2105910;28;20104;-69
2021/04/21 00:19:52;;;;;;;15.27;13.40;;;12.10;97.30;;;;;;2097621;28;20048;-69
2021/04/21 00:21:03;;;;;;;15.52;13.95;;;12.10;97.40;;;;;;2096481;28;20032;-69
2021/04/21 00:22:09;;;;;;;14.70;13.00;;;12.00;97.90;;;;;;2096983;28;20028;-69
2021/04/21 00:23:12;;;;;;;15.88;12.45;;;12.00;97.50;;;;;;2097336;28;20021;-70
2021/04/21 00:24:14;;;;;;;15.20;12.48;;;12.00;97.20;;;;;;2096984;28;20029;-70
2021/04/21 00:25:15;;;;;;;16.10;14.40;;;12.00;96.90;;;;;;2097496;28;20024;-69
2021/04/21 00:26:19;;;;;;;14.07;12.70;;;11.90;97.50;;;;;;2097252;28;20024;-69
2021/04/21 00:27:24;;;;;;;15.73;14.13;;;11.90;97.10;;;;;;2097275;28;20676;-69
2021/04/21 00:28:28;;;;;;;16.25;13.57;;;11.90;97.70;;;;;;2097405;28;20523;-69
2021/04/21 00:29:30;;;;;;;20.23;12.50;;;11.90;97.80;;;;;;2096947;28;20035;-69
2021/04/21 00:30:33;;;;;;;17.60;15.05;;;11.80;97.40;;;;;;2096988;28;20038;-69
2021/04/21 00:31:34;;;;;;;17.85;15.25;;;11.80;98.00;;;;;;2097166;28;20028;-69
2021/04/21 00:32:47;;;;;;;15.93;14.23;;;11.80;98.40;;;;;;2096882;28;20035;-69
2021/04/21 00:33:53;;;;;;;16.52;13.95;;;11.80;98.20;;;;;;2096870;28;20029;-69
2021/04/21 00:34:56;;;;;;;16.10;14.50;;;11.80;98.20;;;;;;2100015;28;20039;-69
2021/04/21 00:35:58;;;;;;;16.88;15.07;;;11.70;98.10;;;;;;2102953;28;20024;-69
2021/04/21 00:37:00;;;;;;;19.25;15.73;;;11.70;98.50;;;;;;2096997;28;20025;-69
2021/04/21 00:38:03;;;;;;;17.67;15.88;;;11.70;98.70;;;;;;2097519;28;20025;-69
2021/04/21 00:39:05;;;;;;;16.92;15.07;;;11.70;98.90;;;;;;2097196;28;20040;-69
2021/04/21 00:40:09;;;;;;;18.50;15.38;;;11.60;98.90;;;;;;2097383;28;20094;-69
2021/04/21 00:41:24;;;;;;;21.60;16.85;;;11.60;99.20;;;;;;2096571;28;20048;-69
2021/04/21 00:42:27;;;;;;;18.40;15.90;;;11.60;99.70;;;;;;2098502;28;20573;-69
2021/04/21 00:43:53;;;;;;;18.60;15.07;;;11.50;99.50;;;;;;2104543;28;20433;-69
2021/04/21 00:45:15;;;;;;;15.82;14.25;;;11.50;99.50;;;;;;2093510;28;20024;-69
2021/04/21 00:46:36;;;;;;;19.23;14.65;;;11.40;99.50;;;;;;2100519;28;20028;-70
2021/04/21 00:47:55;;;;;;;18.25;16.13;;;11.40;99.00;;;;;;2097028;28;20030;-70
2021/04/21 00:49:08;;;;;;;16.95;15.25;;;11.40;99.40;;;;;;2096089;28;20048;-69
2021/04/21 00:50:14;;;;;;;16.05;14.35;;;11.40;99.40;;;;;;2096516;28;20173;-70
2021/04/21 00:51:24;;;;;;;17.08;14.68;;;11.40;99.30;;;;;;2100911;28;20020;-69
2021/04/21 00:52:37;;;;;;;15.68;14.07;;;11.30;99.60;;;;;;2104844;28;20028;-69
2021/04/21 00:53:42;;;;;;;16.92;15.13;;;11.30;99.30;;;;;;2105766;28;20024;-69
2021/04/21 00:55:02;;;;;;;17.80;15.13;;;11.30;99.30;;;;;;2105152;28;20035;-70
2021/04/21 00:56:09;;;;;;;;;;;11.30;99.80;;;;;;2092784;28;20107;-69
2021/04/21 00:57:42;;;;;;;20.73;16.83;;;11.10;99.90;;;;;;2096967;28;19908;-70
2021/04/21 00:58:56;;;;;;;19.67;15.57;;;11.10;99.90;;;;;;2097258;28;20036;-69
2021/04/21 01:00:09;;;;;;;18.25;15.15;;;11.10;99.90;;;;;;2096704;28;20035;-70
2021/04/21 01:01:11;;;;;;;17.48;15.57;;;11.10;99.90;;;;;;2096263;28;20048;-69
2021/04/21 01:02:15;;;;;;;19.77;16.10;;;11.10;99.90;;;;;;2095601;28;20024;-70
2021/04/21 01:03:22;;;;;;;18.15;16.35;;;11.10;99.90;;;;;;2096771;28;20024;-69
2021/04/21 01:04:23;;;;;;;18.80;16.27;;;11.10;99.90;;;;;;2102318;28;20632;-69
2021/04/21 01:05:31;;;;;;;17.05;14.27;;;11.00;99.90;;;;;;2105130;28;20402;-69
2021/04/21 01:06:41;;;;;;;17.50;15.35;;;11.10;99.90;;;;;;2104981;28;20024;-69
2021/04/21 01:07:42;;;;;;;;;;;11.00;99.90;;;;;;2104885;28;20024;-69
2021/04/21 01:08:47;;;;;;;17.80;15.98;;;10.90;99.90;;;;;;2104478;28;19908;-69
2021/04/21 01:09:52;;;;;;;20.02;17.50;;;10.90;99.90;;;;;;2096029;28;20025;-69
2021/04/21 01:10:59;;;;;;;20.45;17.55;;;10.90;99.90;;;;;;2096298;28;20426;-69
2021/04/21 01:12:05;;;;;;;17.95;16.13;;;10.90;99.90;;;;;;2097108;28;20085;-69
2021/04/21 01:13:06;;;;;;;20.92;15.07;;;10.90;99.90;;;;;;2104138;28;20074;-69
2021/04/21 01:14:14;;;;;;;18.77;16.85;;;10.90;99.90;;;;;;2104965;28;20039;-69
2021/04/21 01:15:17;;;;;;;17.15;15.38;;;10.90;99.90;;;;;;2105224;28;20020;-69
2021/04/21 01:16:32;;;;;;;18.73;16.77;;;10.80;99.90;;;;;;2105153;28;20020;-69
2021/04/21 01:17:37;;;;;;;17.67;15.88;;;10.80;99.90;;;;;;2101424;28;20023;-70
2021/04/21 01:18:41;;;;;;;20.77;16.90;;;10.80;99.90;;;;;;2096608;28;20032;-69
2021/04/21 01:19:56;;;;;;;14.48;12.88;;;10.80;99.90;;;;;;2097065;28;20029;-69
2021/04/21 01:21:14;;;;;;;17.58;15.82;;;10.80;99.90;;;;;;2096779;28;20762;-69
2021/04/21 01:22:38;;;;;;;18.48;16.60;;;10.80;99.90;;;;;;2096193;28;20046;-69
2021/04/21 01:23:51;;;;;;;20.77;16.75;;;10.70;99.90;;;;;;2100347;28;20476;-69
2021/04/21 01:25:04;;;;;;;19.55;16.40;;;10.70;99.90;;;;;;2104885;28;20077;-69
2021/04/21 01:26:35;;;;;;;19.08;16.23;;;10.70;99.90;;;;;;2105141;28;20063;-69
2021/04/21 01:27:47;;;;;;;19.30;16.60;;;10.70;99.90;;;;;;2105394;28;20478;-69
2021/04/21 01:28:52;;;;;;;19.15;17.08;;;10.60;99.90;;;;;;2104940;28;20025;-70
2021/04/21 01:29:55;;;;;;;18.92;15.98;;;10.60;99.90;;;;;;2102188;28;20027;-69
2021/04/21 01:30:56;;;;;;;19.00;16.65;;;10.60;99.90;;;;;;2088826;28;20515;-69
2021/04/21 01:32:02;;;;;;;17.55;15.43;;;10.60;99.90;;;;;;2093563;28;20020;-69
2021/04/21 01:33:11;;;;;;;16.67;14.93;;;10.60;99.90;;;;;;2095865;28;20016;-69
2021/04/21 01:34:14;;;;;;;19.15;15.82;;;10.50;99.90;;;;;;2095748;28;20623;-69
2021/04/21 01:35:20;;;;;;;16.92;15.15;;;10.50;99.90;;;;;;2087552;28;20021;-69
2021/04/21 01:36:24;;;;;;;16.70;14.95;;;10.50;99.90;;;;;;2088945;28;20082;-69
2021/04/21 01:37:32;;;;;;;18.77;16.63;;;10.50;99.90;;;;;;2096068;28;20377;-69
2021/04/21 01:38:35;;;;;;;19.40;17.08;;;10.50;99.90;;;;;;2096179;28;20028;-69
2021/04/21 01:39:42;;;;;;;19.92;17.10;;;10.40;99.90;;;;;;2096486;28;20023;-69
2021/04/21 01:40:45;;;;;;;20.02;16.83;;;10.40;99.90;;;;;;2096702;28;20024;-69
2021/04/21 01:41:51;;;;;;;20.13;16.95;;;10.40;99.90;;;;;;2096381;28;20016;-69
2021/04/21 01:42:58;;;;;;;18.15;16.20;;;10.40;99.90;;;;;;2096076;28;20023;-69
2021/04/21 01:44:03;;;;;;;20.13;18.00;;;10.40;99.90;;;;;;2096424;28;20028;-69
2021/04/21 01:45:05;;;;;;;19.85;17.75;;;10.40;99.90;;;;;;2089399;28;20090;-69
2021/04/21 01:46:07;;;;;;;19.48;16.88;;;10.40;99.90;;;;;;2091980;28;20021;-69
2021/04/21 01:47:16;;;;;;;21.35;18.48;;;10.40;99.90;;;;;;2096063;28;20483;-69
2021/04/21 01:48:22;;;;;;;19.50;17.38;;;10.30;99.90;;;;;;2098628;28;20021;-69
2021/04/21 01:49:23;;;;;;;24.35;19.50;;;10.30;99.90;;;;;;2096072;28;20023;-69
2021/04/21 01:50:25;;;;;;;19.73;17.63;;;10.30;99.90;;;;;;2096279;28;20031;-69
2021/04/21 01:51:31;;;;;;;23.77;19.95;;;10.30;99.90;;;;;;2093859;28;20021;-69
2021/04/21 01:52:56;;;;;;;22.25;18.73;;;10.20;99.90;;;;;;2091654;28;20736;-69
2021/04/21 01:54:17;;;;;;;19.33;17.40;;;10.30;99.90;;;;;;2091270;28;20487;-69
2021/04/21 01:55:21;;;;;;;18.45;16.23;;;10.20;99.90;;;;;;2097658;28;20051;-69
2021/04/21 01:56:42;;;;;;;16.63;15.00;;;10.20;99.90;;;;;;2104578;28;20091;-69
2021/04/21 01:57:48;;;;;;;18.73;16.73;;;10.10;99.90;;;;;;2100935;28;20025;-69
2021/04/21 01:59:07;;;;;;;18.95;16.98;;;10.10;99.90;;;;;;2096123;28;20029;-69
2021/04/21 02:00:12;;;;;;;20.75;18.55;;;10.10;99.90;;;;;;2096415;28;20044;-69
2021/04/21 02:01:36;;;;;;;19.27;17.38;;;10.10;99.90;;;;;;2097681;28;20476;-69
2021/04/21 02:02:39;;;;;;;20.08;17.52;;;10.10;99.90;;;;;;2092513;28;20032;-69
2021/04/21 02:03:46;;;;;;;21.55;19.33;;;10.00;99.90;;;;;;2106238;28;20383;-69
2021/04/21 02:04:49;;;;;;;20.38;16.35;;;10.00;99.90;;;;;;2106283;28;20189;-69
2021/04/21 02:06:04;;;;;;;18.77;16.15;;;10.00;99.90;;;;;;2105381;28;20444;-69
2021/04/21 02:07:41;;;;;;;16.42;14.68;;;10.00;99.90;;;;;;2106042;28;20028;-69
2021/04/21 02:09:12;;;;;;;20.73;18.35;;;10.00;99.90;;;;;;2105563;28;20027;-69
2021/04/21 02:10:29;;;;;;;20.25;18.15;;;9.90;99.90;;;;;;2105817;28;20444;-69
2021/04/21 02:11:34;;;;;;;19.42;17.35;;;9.90;99.90;;;;;;2106550;28;20034;-69
2021/04/21 02:12:37;;;;;;;21.73;18.58;;;9.90;99.90;;;;;;2105335;28;20062;-69
2021/04/21 02:13:37;;;;;;;20.42;17.02;;;9.80;99.90;;;;;;2106366;28;20016;-69
2021/04/21 02:15:15;;;;;;;22.33;19.23;;;9.90;99.90;;;;;;2105604;28;20048;-69
2021/04/21 02:16:35;;;;;;;21.48;18.45;;;9.80;99.90;;;;;;2099476;28;20024;-69
2021/04/21 02:18:05;;;;;;;19.58;17.48;;;9.80;99.90;;;;;;2104492;28;20093;-69
2021/04/21 02:19:27;;;;;;;17.58;15.70;;;9.80;99.90;;;;;;2067236;28;20386;-69
2021/04/21 02:20:42;;;;;;;16.73;14.75;;;9.70;99.90;;;;;;2069527;28;20426;-69
2021/04/21 02:21:53;;;;;;;21.52;19.23;;;9.70;99.90;;;;;;2089868;28;20555;-69
2021/04/21 02:23:08;;;;;;;22.23;18.42;;;9.70;99.90;;;;;;2097175;28;20064;-69
2021/04/21 02:24:46;;;;;;;20.40;18.08;;;9.70;99.90;;;;;;2097489;28;20016;-69
2021/04/21 02:26:22;;;;;;;20.65;17.00;;;9.60;99.90;;;;;;2097675;28;20043;-69
2021/04/21 02:27:38;;;;;;;18.60;16.60;;;9.60;99.90;;;;;;2066971;28;20038;-69
2021/04/21 02:28:51;;;;;;;18.73;16.73;;;9.60;99.90;;;;;;2093458;28;20028;-69
2021/04/21 02:30:03;;;;;;;18.80;16.80;;;9.60;99.90;;;;;;2097613;28;20029;-69
2021/04/21 02:31:23;;;;;;;18.77;16.85;;;9.50;99.90;;;;;;2089276;28;20520;-69
2021/04/21 02:32:27;;;;;;;19.50;16.20;;;9.50;99.90;;;;;;2105617;28;20278;-69
2021/04/21 02:33:47;;;;;;;16.77;14.90;;;9.50;99.90;;;;;;2105913;28;20112;-69
2021/04/21 02:35:05;;;;;;;22.08;18.40;;;9.50;99.90;;;;;;2099426;28;20036;-69
2021/04/21 02:36:27;;;;;;;22.40;17.73;;;9.50;99.90;;;;;;2097870;28;20029;-69
2021/04/21 02:37:53;;;;;;;21.63;19.33;;;9.50;99.90;;;;;;2094940;28;20031;-69
2021/04/21 02:38:59;;;;;;;21.98;18.40;;;9.40;99.90;;;;;;2089632;28;20025;-69
2021/04/21 02:40:21;;;;;;;20.85;17.90;;;9.40;99.90;;;;;;2093570;28;20052;-69
2021/04/21 02:41:58;;;;;;;19.13;15.48;;;9.40;99.90;;;;;;2097682;28;20552;-69
2021/04/21 02:43:33;;;;;;;19.35;17.38;;;9.30;99.90;;;;;;2097067;28;20079;-69
2021/04/21 02:44:48;;;;;;;18.10;16.20;;;9.30;99.90;;;;;;2071516;28;20149;-69
2021/04/21 02:45:58;;;;;;;18.52;16.15;;;9.30;99.90;;;;;;2087811;28;20103;-69
2021/04/21 02:47:21;;;;;;;22.40;18.77;;;9.30;99.90;;;;;;2095899;28;20020;-69
2021/04/21 02:48:43;;;;;;;21.48;19.20;;;9.30;99.90;;;;;;2099287;28;20029;-69
2021/04/21 02:50:12;;;;;;;19.40;16.70;;;9.20;99.90;;;;;;2097611;28;20186;-69
2021/04/21 02:51:47;;;;;;;19.73;17.70;;;9.20;99.90;;;;;;2097254;28;20027;-69
2021/04/21 02:53:07;;;;;;;19.92;16.73;;;9.20;99.90;;;;;;2096790;28;20451;-69
2021/04/21 02:54:14;;;;;;;19.87;16.00;;;9.20;99.90;;;;;;2097587;28;20085;-69
2021/04/21 02:55:38;;;;;;;22.02;18.10;;;9.10;99.90;;;;;;2101926;28;20254;-69
2021/04/21 02:57:06;;;;;;;19.95;16.48;;;9.10;99.90;;;;;;2096877;28;20418;-70
2021/04/21 02:58:30;;;;;;;24.00;21.27;;;9.10;99.90;;;;;;2091788;28;20491;-69
2021/04/21 02:59:36;;;;;;;20.08;17.85;;;9.10;99.90;;;;;;2098528;28;20036;-69
2021/04/21 03:00:42;;;;;;;19.63;17.63;;;9.00;99.90;;;;;;2103009;28;20354;-69
2021/04/21 03:01:55;;;;;;;17.98;16.08;;;9.10;99.90;;;;;;2103797;28;20112;-69
2021/04/21 03:03:14;;;;;;;17.73;15.77;;;9.10;99.90;;;;;;2096442;28;20012;-69
2021/04/21 03:04:35;;;;;;;20.75;18.65;;;9.00;99.90;;;;;;2104658;28;20460;-69
2021/04/21 03:05:41;;;;;;;20.65;18.48;;;9.00;99.90;;;;;;2098323;28;20032;-70
2021/04/21 03:06:47;;;;;;;21.48;19.15;;;9.00;99.90;;;;;;2096458;28;20348;-69
2021/04/21 03:08:09;;;;;;;20.60;17.95;;;9.00;99.90;;;;;;2096724;28;20035;-69
2021/04/21 03:09:17;;;;;;;19.88;17.55;;;9.00;99.90;;;;;;2095922;28;20047;-69
2021/04/21 03:10:20;;;;;;;20.23;17.40;;;9.00;99.90;;;;;;2087670;28;20108;-69
2021/04/21 03:11:23;;;;;;;20.20;15.95;;;9.00;99.90;;;;;;2086634;28;20033;-69
2021/04/21 03:12:28;;;;;;;18.20;16.23;;;9.00;99.90;;;;;;2090448;28;20388;-70
2021/04/21 03:13:31;;;;;;;20.77;18.45;;;9.00;99.90;;;;;;2095690;28;20060;-69
2021/04/21 03:14:33;;;;;;;22.98;19.17;;;9.00;99.90;;;;;;2095287;28;20367;-69
2021/04/21 03:15:36;;;;;;;21.75;19.27;;;8.90;99.90;;;;;;2096347;28;20031;-69
2021/04/21 03:16:41;;;;;;;20.15;17.77;;;8.90;99.90;;;;;;2095948;28;20047;-70
2021/04/21 03:17:44;;;;;;;19.50;17.40;;;8.90;99.90;;;;;;2103668;28;20039;-69
2021/04/21 03:18:46;;;;;;;22.08;16.88;;;8.90;99.90;;;;;;2103672;28;20121;-69
2021/04/21 03:19:51;;;;;;;20.45;17.85;;;8.90;99.90;;;;;;2104558;28;20028;-69
2021/04/21 03:20:57;;;;;;;21.35;19.05;;;8.90;99.90;;;;;;2104676;28;20039;-69
2021/04/21 03:22:02;;;;;;;23.27;19.30;;;8.90;99.90;;;;;;2103921;28;20060;-70
2021/04/21 03:23:05;;;;;;;20.63;18.48;;;8.90;99.90;;;;;;2103236;28;20027;-69
2021/04/21 03:24:17;;;;;;;22.17;18.98;;;8.80;99.90;;;;;;2099444;28;20020;-69
2021/04/21 03:25:31;;;;;;;20.45;18.25;;;8.80;99.90;;;;;;2096115;28;20056;-69
2021/04/21 03:26:34;;;;;;;20.92;17.00;;;8.80;99.90;;;;;;2096155;28;20047;-69
2021/04/21 03:27:36;;;;;;;19.23;17.30;;;8.80;99.90;;;;;;2096255;28;20430;-69
2021/04/21 03:28:41;;;;;;;22.83;20.35;;;8.80;99.90;;;;;;2096195;28;20029;-70
2021/04/21 03:29:48;;;;;;;25.25;20.48;;;8.80;99.90;;;;;;2096044;28;20048;-69
2021/04/21 03:30:56;;;;;;;22.35;19.35;;;8.80;99.90;;;;;;2087851;28;20151;-69
2021/04/21 03:32:01;;;;;;;22.15;19.75;;;8.80;99.90;;;;;;2092865;28;20100;-69
2021/04/21 03:33:22;;;;;;;19.55;17.58;;;8.80;99.90;;;;;;2095518;28;20079;-69
2021/04/21 03:34:25;;;;;;;22.25;19.95;;;8.70;99.90;;;;;;2096250;28;20460;-69
2021/04/21 03:35:27;;;;;;;21.60;19.30;;;8.70;99.90;;;;;;2095568;28;20033;-69
2021/04/21 03:36:28;;;;;;;21.83;18.60;;;8.70;99.90;;;;;;2095476;28;20021;-69
2021/04/21 03:37:54;;;;;;;20.85;18.73;;;8.70;99.90;;;;;;2096115;28;20105;-69
2021/04/21 03:38:55;;;;;;;21.70;19.40;;;8.70;99.90;;;;;;2096238;28;20371;-69
2021/04/21 03:39:57;;;;;;;21.88;19.52;;;8.70;99.90;;;;;;2096020;28;20027;-69
2021/04/21 03:40:59;;;;;;;27.17;21.90;;;8.70;99.90;;;;;;2096809;28;20102;-70
2021/04/21 03:41:59;;;;;;;19.92;17.30;;;8.60;99.90;;;;;;2096873;28;20024;-69
2021/04/21 03:43:01;;;;;;;22.15;19.80;;;8.70;99.90;;;;;;2096909;28;20078;-69
2021/04/21 03:44:02;;;;;;;21.85;17.60;;;8.60;99.90;;;;;;2097218;28;20025;-69
2021/04/21 03:45:04;;;;;;;25.17;18.15;;;8.70;99.90;;;;;;2094469;28;20554;-69
2021/04/21 03:46:06;;;;;;;23.77;20.23;;;8.60;99.90;;;;;;2096850;28;20036;-69
2021/04/21 03:47:08;;;;;;;22.60;20.00;;;8.60;99.90;;;;;;2100267;28;20551;-69
2021/04/21 03:48:09;;;;;;;21.58;19.15;;;8.60;99.90;;;;;;2100955;28;20039;-69
2021/04/21 03:49:11;;;;;;;21.80;19.50;;;8.60;99.90;;;;;;2100365;28;20554;-69
2021/04/21 03:50:12;;;;;;;25.88;22.27;;;8.60;99.90;;;;;;2097010;28;20047;-69
2021/04/21 03:51:14;;;;;;;23.02;20.45;;;8.60;99.90;;;;;;2097902;28;20036;-69
2021/04/21 03:52:17;;;;;;;24.00;21.38;;;8.60;99.90;;;;;;2097007;28;20103;-69
2021/04/21 03:53:22;;;;;;;22.65;20.25;;;8.60;99.90;;;;;;2097583;28;20024;-69
2021/04/21 03:54:24;;;;;;;23.45;19.30;;;8.50;99.90;;;;;;2096569;28;20115;-70
2021/04/21 03:55:25;;;;;;;21.65;18.52;;;8.50;99.90;;;;;;2103784;28;20487;-69
2021/04/21 03:56:28;;;;;;;21.95;18.80;;;8.50;99.90;;;;;;2104631;28;20421;-69
2021/04/21 03:57:32;;;;;;;20.52;17.75;;;8.50;99.90;;;;;;2100242;28;20025;-69
2021/04/21 03:58:33;;;;;;;22.38;18.88;;;8.50;99.90;;;;;;2097433;28;20479;-69
2021/04/21 03:59:36;;;;;;;23.48;20.95;;;8.50;99.90;;;;;;2097634;28;20028;-69
2021/04/21 04:00:39;;;;;;;29.17;21.40;;;8.50;99.90;;;;;;2097589;28;20021;-69
2021/04/21 04:01:42;;;;;;;23.90;20.40;;;8.50;99.90;;;;;;2097867;28;20044;-69
2021/04/21 04:03:01;;;;;;;23.48;19.85;;;8.40;99.90;;;;;;2096775;28;20024;-69
2021/04/21 04:04:05;;;;;;;27.70;20.42;;;8.40;99.90;;;;;;2097793;28;20464;-69
2021/04/21 04:05:09;;;;;;;24.60;21.42;;;8.40;99.90;;;;;;2097569;28;20560;-69
2021/04/21 04:06:19;;;;;;;25.55;21.45;;;8.40;99.90;;;;;;2097210;28;20020;-69
2021/04/21 04:07:24;;;;;;;24.95;21.20;;;8.40;99.90;;;;;;2096692;28;20027;-69
2021/04/21 04:08:30;;;;;;;24.40;20.30;;;8.40;99.90;;;;;;2097585;28;20036;-69
2021/04/21 04:09:34;;;;;;;28.33;22.55;;;8.40;99.90;;;;;;2096859;28;20020;-69
2021/04/21 04:10:36;;;;;;;22.77;19.13;;;8.40;99.90;;;;;;2097024;28;20074;-69
2021/04/21 04:11:49;;;;;;;22.05;19.75;;;8.30;99.90;;;;;;2097667;28;20024;-69
2021/04/21 04:12:52;;;;;;;24.33;20.65;;;8.40;99.90;;;;;;2096712;28;20410;-69
2021/04/21 04:14:00;;;;;;;23.52;19.65;;;8.30;99.90;;;;;;2097853;28;20051;-70
2021/04/21 04:15:02;;;;;;;22.23;19.83;;;8.30;99.90;;;;;;2097451;28;20044;-69
2021/04/21 04:16:05;;;;;;;24.33;20.63;;;8.40;99.90;;;;;;2097427;28;20038;-70
2021/04/21 04:17:07;;;;;;;23.98;21.48;;;8.30;99.90;;;;;;2097132;28;20024;-69
2021/04/21 04:18:11;;;;;;;28.02;22.95;;;8.30;99.90;;;;;;2097018;28;20062;-69
2021/04/21 04:19:13;;;;;;;23.27;20.20;;;8.30;99.90;;;;;;2088868;28;20056;-69
2021/04/21 04:20:15;;;;;;;22.92;20.50;;;8.30;99.90;;;;;;2097196;28;20492;-69
2021/04/21 04:21:18;;;;;;;22.63;19.58;;;8.40;99.90;;;;;;2097346;28;20028;-70
2021/04/21 04:22:20;;;;;;;23.88;20.90;;;8.40;99.90;;;;;;2096525;28;20353;-69
2021/04/21 04:23:22;;;;;;;24.45;21.85;;;8.40;99.90;;;;;;2097186;28;20106;-69
2021/04/21 04:24:23;;;;;;;24.17;21.15;;;8.40;99.90;;;;;;2097383;28;20048;-70
2021/04/21 04:25:26;;;;;;;28.45;24.40;;;8.40;99.90;;;;;;2097401;28;20029;-69
2021/04/21 04:26:28;;;;;;;26.27;22.92;;;8.40;99.90;;;;;;2096510;28;20028;-69
2021/04/21 04:27:30;;;;;;;25.63;20.40;;;8.40;99.90;;;;;;2098982;28;20037;-69
2021/04/21 04:28:36;;;;;;;28.13;21.00;;;8.40;99.90;;;;;;2095436;28;20067;-69
2021/04/21 04:29:37;;;;;;;23.88;20.98;;;8.40;99.90;;;;;;2095732;28;20029;-69
2021/04/21 04:30:39;;;;;;;26.63;21.40;;;8.40;99.90;;;;;;2096888;28;20111;-69
2021/04/21 04:31:40;;;;;;;27.77;21.85;;;8.40;99.90;;;;;;2095539;28;20027;-69
2021/04/21 04:32:42;;;;;;;25.33;22.63;;;8.40;99.90;;;;;;2095001;28;20400;-70
2021/04/21 04:33:45;;;;;;;25.65;22.23;;;8.40;99.90;;;;;;2096251;28;20056;-70
2021/04/21 04:34:48;;;;;;;29.15;22.27;;;8.40;99.90;;;;;;2103410;28;20028;-70
2021/04/21 04:35:49;;;;;;;25.02;21.70;;;8.40;99.90;;;;;;2097292;28;20025;-70
2021/04/21 04:36:50;;;;;;;25.77;21.98;;;8.50;99.90;;;;;;2102073;28;20036;-69
2021/04/21 04:37:56;;;;;;;24.85;21.70;;;8.50;99.90;;;;;;2101497;28;20170;-70
2021/04/21 04:38:57;;;;;;;26.55;23.00;;;8.50;99.90;;;;;;2089646;28;20480;-70
2021/04/21 04:39:59;;;;;;;26.23;23.38;;;8.50;99.90;;;;;;2089724;28;20388;-70
2021/04/21 04:40:59;;;;;;;28.92;24.60;;;8.50;99.90;;;;;;2088732;28;20017;-69
2021/04/21 04:42:00;;;;;;;27.80;24.10;;;8.60;99.90;;;;;;2091811;28;20101;-70
2021/04/21 04:43:01;;;;;;;26.50;23.73;;;8.60;99.90;;;;;;2088975;28;20476;-70
2021/04/21 04:44:03;;;;;;;32.90;26.83;;;8.60;99.90;;;;;;2090243;28;20790;-70
2021/04/21 04:45:06;;;;;;;25.77;22.13;;;8.60;99.90;;;;;;2092534;28;20025;-69
2021/04/21 04:46:09;;;;;;;24.10;21.45;;;8.60;99.90;;;;;;2093260;28;20025;-70
2021/04/21 04:47:37;;;;;;;26.35;23.02;;;8.60;99.90;;;;;;2092126;28;20017;-70
2021/04/21 04:48:49;;;;;;;27.58;24.27;;;8.60;99.90;;;;;;2088822;28;20033;-70
2021/04/21 04:50:01;;;;;;;30.35;25.38;;;8.60;99.90;;;;;;2096005;28;20488;-69
2021/04/21 04:51:05;;;;;;;31.40;25.98;;;8.60;99.90;;;;;;2087093;28;20025;-69
2021/04/21 04:52:08;;;;;;;31.45;26.33;;;8.70;99.90;;;;;;2088056;28;20317;-70
2021/04/21 04:53:10;;;;;;;32.85;26.92;;;8.70;99.90;;;;;;2090089;28;20027;-69
2021/04/21 04:54:13;;;;;;;29.02;25.05;;;8.70;99.90;;;;;;2091232;28;20112;-70
2021/04/21 04:55:15;;;;;;;31.70;28.08;;;8.70;99.90;;;;;;2092530;28;20021;-70
2021/04/21 04:56:18;;;;;;;31.27;27.20;;;8.70;99.90;;;;;;2092536;28;20017;-69
2021/04/21 04:57:20;;;;;;;27.58;24.55;;;8.70;99.90;;;;;;2088962;28;20021;-69
2021/04/21 04:58:22;;;;;;;29.83;26.58;;;8.80;99.90;;;;;;2091561;28;20017;-70
2021/04/21 04:59:27;;;;;;;31.17;27.70;;;8.80;99.90;;;;;;2096773;28;20028;-70
2021/04/21 05:00:28;;;;;;;28.33;25.08;;;8.80;99.90;;;;;;2095659;28;20020;-70
2021/04/21 05:01:44;;;;;;;28.35;25.25;;;8.80;99.90;;;;;;2096235;28;20078;-69
2021/04/21 05:03:06;;;;;;;32.25;28.77;;;8.80;99.90;;;;;;2095832;28;20012;-70
2021/04/21 05:04:10;;;;;;;33.28;29.65;;;8.90;99.90;;;;;;2096528;28;20017;-69
2021/04/21 05:05:11;;;;;;;33.60;28.27;;;8.80;99.90;;;;;;2097310;28;20016;-69
2021/04/21 05:06:15;;;;;;;35.55;28.50;;;8.90;99.90;;;;;;2097280;28;20035;-69
2021/04/21 05:07:44;;;;;;;32.53;27.48;;;8.90;99.90;;;;;;2097366;28;20024;-69
2021/04/21 05:08:48;;;;;;;30.83;27.50;;;8.90;99.90;;;;;;2096161;28;20406;-69
2021/04/21 05:09:53;;;;;;;33.38;28.27;;;8.90;99.90;;;;;;2096553;28;20025;-69
2021/04/21 05:11:03;;;;;;;33.00;29.48;;;8.90;99.90;;;;;;2094320;28;20021;-70
2021/04/21 05:12:13;;;;;;;37.08;30.15;;;8.90;99.90;;;;;;2094009;28;20037;-70
2021/04/21 05:13:20;;;;;;;41.17;33.90;;;9.00;99.90;;;;;;2094486;28;20037;-69
2021/04/21 05:14:23;;;;;;;36.60;30.83;;;9.00;99.90;;;;;;2097502;28;20047;-69
2021/04/21 05:15:39;;;;;;;34.08;30.25;;;9.00;99.90;;;;;;2096323;28;20034;-70
2021/04/21 05:17:18;;;;;;;36.28;30.17;;;9.00;99.90;;;;;;2096743;28;20067;-70
2021/04/21 05:18:52;;;;;;;33.47;29.48;;;9.00;99.90;;;;;;2095343;28;20425;-69
2021/04/21 05:20:34;;;;;;;32.60;28.67;;;9.00;99.90;;;;;;2094627;28;20012;-70
2021/04/21 05:22:32;;;;;;;35.88;29.83;;;9.10;99.90;;;;;;2056874;28;20058;-69
2021/04/21 05:23:38;;;;;;;42.10;32.90;;;9.10;99.90;;;;;;2057922;28;20029;-69
2021/04/21 05:25:00;;;;;;;36.42;32.13;;;9.10;99.90;;;;;;2095829;28;20075;-69
2021/04/21 05:26:16;;;;;;;41.33;33.15;;;9.20;99.90;;;;;;2097344;28;20555;-69
2021/04/21 05:28:15;;;;;;;44.17;33.63;;;9.20;99.90;;;;;;2095246;28;20115;-69
2021/04/21 05:29:18;;;;;;;38.33;32.22;;;9.20;99.90;;;;;;2101766;28;20028;-69
2021/04/21 05:30:56;;;;;;;39.53;32.30;;;9.20;99.90;;;;;;2100206;28;20439;-69
2021/04/21 05:32:19;;;;;;;39.17;31.67;;;9.30;99.90;;;;;;2097080;28;20518;-69
2021/04/21 05:33:51;;;;;;;35.45;29.25;;;9.30;99.90;;;;;;2094416;28;20412;-69
2021/04/21 05:35:29;;;;;;;34.83;30.70;;;9.30;99.90;;;;;;2088750;28;20032;-69
2021/04/21 05:37:00;;;;;;;33.83;28.85;;;9.40;99.90;;;;;;2094389;28;20043;-69
2021/04/21 05:38:22;;;;;;;33.63;27.98;;;9.40;99.90;;;;;;2091245;28;20107;-70
2021/04/21 05:39:28;;;;;;;39.20;30.58;;;9.40;99.90;;;;;;2096167;28;20021;-69
2021/04/21 05:40:50;;;;;;;34.15;29.67;;;9.50;99.90;;;;;;2093535;28;20027;-69
2021/04/21 05:42:19;;;;;;;32.83;29.33;;;9.50;99.90;;;;;;2093946;28;20521;-69
2021/04/21 05:43:38;;;;;;;32.58;28.88;;;9.50;99.90;;;;;;2092882;28;20039;-69
2021/04/21 05:45:00;;;;;;;34.00;30.30;;;9.60;99.90;;;;;;2094334;28;20025;-70
2021/04/21 05:46:22;;;;;;;35.50;28.88;;;9.70;99.90;;;;;;2096054;28;20112;-69
2021/04/21 05:48:00;;;;;;;34.03;27.90;;;9.70;99.90;;;;;;2098274;28;20031;-70
2021/04/21 05:49:03;;;;;;;36.90;29.15;;;9.80;99.90;;;;;;2097175;28;20020;-70
2021/04/21 05:50:41;;;;;;;44.47;30.33;;;9.80;99.90;;;;;;2096399;28;20052;-70
2021/04/21 05:52:10;;;;;;;31.95;28.23;;;9.90;99.90;;;;;;2096012;28;20029;-70
2021/04/21 05:53:29;;;;;;;33.60;29.75;;;9.90;99.90;;;;;;2096505;28;20031;-70
2021/04/21 05:55:01;;;;;;;38.03;29.40;;;10.00;99.90;;;;;;2096870;28;20111;-70
2021/04/21 05:56:38;;;;;;;34.55;30.60;;;10.10;99.90;;;;;;2095014;28;20028;-69
2021/04/21 05:58:20;;;;;;;39.42;29.02;;;10.10;99.90;;;;;;2095276;28;20102;-70